createdAt,value
2019-02-03T00:00:10.798Z,0.00
2019-02-03T00:01:10.766Z,0.00
2019-02-03T00:02:10.749Z,0.00
2019-02-03T00:03:10.718Z,0.00
2019-02-03T00:04:10.692Z,0.00
2019-02-03T00:05:10.686Z,0.00
2019-02-03T00:06:10.647Z,0.00
2019-02-03T00:07:10.628Z,0.00
2019-02-03T00:08:10.596Z,0.00
2019-02-03T00:09:10.580Z,0.00
2019-02-03T00:10:10.555Z,0.00
2019-02-03T00:11:10.526Z,0.00
2019-02-03T00:12:10.501Z,0.00
2019-02-03T00:13:10.486Z,0.00
2019-02-03T00:14:10.453Z,0.00
2019-02-03T00:15:10.431Z,0.00
2019-02-03T00:16:10.415Z,0.00
2019-02-03T00:17:10.386Z,0.00
2019-02-03T00:18:10.359Z,0.00
2019-02-03T00:19:10.333Z,0.00
2019-02-03T00:20:10.308Z,0.00
2019-02-03T00:21:10.398Z,0.00
2019-02-03T00:22:10.269Z,0.00
2019-02-03T00:23:10.237Z,0.00
2019-02-03T00:24:10.218Z,0.00
2019-02-03T00:25:10.195Z,0.00
2019-02-03T00:26:10.165Z,0.00
2019-02-03T00:27:10.139Z,0.00
2019-02-03T00:28:10.116Z,0.00
2019-02-03T00:29:10.099Z,0.00
2019-02-03T00:30:10.075Z,0.00
2019-02-03T00:31:10.043Z,0.00
2019-02-03T00:32:10.020Z,0.00
2019-02-03T00:33:10.004Z,0.00
2019-02-03T00:34:09.969Z,0.00
2019-02-03T00:35:09.970Z,0.00
2019-02-03T00:36:09.931Z,0.00
2019-02-03T00:37:16.841Z,0.00
2019-02-03T00:38:20.104Z,0.00
2019-02-03T00:39:09.857Z,0.00
2019-02-03T00:40:09.927Z,0.00
2019-02-03T00:41:09.839Z,0.00
2019-02-03T00:42:09.786Z,0.00
2019-02-03T00:43:09.757Z,0.00
2019-02-03T00:44:09.735Z,0.00
2019-02-03T00:45:09.708Z,0.00
2019-02-03T00:46:09.685Z,0.00
2019-02-03T00:47:09.666Z,0.00
2019-02-03T00:48:09.640Z,0.00
2019-02-03T00:49:09.612Z,0.00
2019-02-03T00:50:09.590Z,0.00
2019-02-03T00:51:10.059Z,0.00
2019-02-03T00:52:09.538Z,0.00
2019-02-03T00:53:09.515Z,0.00
2019-02-03T00:54:09.497Z,0.00
2019-02-03T00:55:09.467Z,0.00
2019-02-03T00:56:09.442Z,0.00
2019-02-03T00:57:09.420Z,0.00
2019-02-03T00:58:09.399Z,0.00
2019-02-03T00:59:09.373Z,0.00
2019-02-03T01:00:09.346Z,0.00
2019-02-03T01:01:09.336Z,0.00
2019-02-03T01:02:09.298Z,0.00
2019-02-03T01:03:09.276Z,0.00
2019-02-03T01:04:09.256Z,0.00
2019-02-03T01:05:09.234Z,0.00
2019-02-03T01:06:09.202Z,0.00
2019-02-03T01:07:09.182Z,0.00
2019-02-03T01:08:09.155Z,0.00
2019-02-03T01:09:09.131Z,0.00
2019-02-03T01:10:09.105Z,0.00
2019-02-03T01:11:09.080Z,0.00
2019-02-03T01:12:09.057Z,0.00
2019-02-03T01:13:09.032Z,0.00
2019-02-03T01:14:09.012Z,0.00
2019-02-03T01:15:08.990Z,0.00
2019-02-03T01:16:08.963Z,0.00
2019-02-03T01:17:08.937Z,0.00
2019-02-03T01:18:08.915Z,0.00
2019-02-03T01:19:08.896Z,0.00
2019-02-03T01:20:08.867Z,0.00
2019-02-03T01:21:08.848Z,0.00
2019-02-03T01:22:08.816Z,0.00
2019-02-03T01:23:08.796Z,0.00
2019-02-03T01:24:08.767Z,0.00
2019-02-03T01:25:08.750Z,0.00
2019-02-03T01:26:08.722Z,0.00
2019-02-03T01:27:08.695Z,0.00
2019-02-03T01:28:08.675Z,0.00
2019-02-03T01:29:08.649Z,0.00
2019-02-03T01:30:08.621Z,0.00
2019-02-03T01:31:08.598Z,0.00
2019-02-03T01:32:08.573Z,0.00
2019-02-03T01:33:08.547Z,0.00
2019-02-03T01:34:08.531Z,0.00
2019-02-03T01:35:08.501Z,0.00
2019-02-03T01:36:08.477Z,0.00
2019-02-03T01:37:08.451Z,0.00
2019-02-03T01:38:08.430Z,0.00
2019-02-03T01:39:08.404Z,0.00
2019-02-03T01:40:08.384Z,0.00
2019-02-03T01:41:08.353Z,0.00
2019-02-03T01:42:08.335Z,0.00
2019-02-03T01:43:08.306Z,0.00
2019-02-03T01:44:08.337Z,0.00
2019-02-03T01:45:08.257Z,0.00
2019-02-03T01:46:08.231Z,0.00
2019-02-03T01:47:08.214Z,0.00
2019-02-03T01:48:08.190Z,0.00
2019-02-03T01:49:08.159Z,0.00
2019-02-03T01:50:08.136Z,0.00
2019-02-03T01:51:08.117Z,0.00
2019-02-03T01:52:08.086Z,0.00
2019-02-03T01:53:08.063Z,0.00
2019-02-03T01:54:08.044Z,0.00
2019-02-03T01:55:08.157Z,0.00
2019-02-03T01:56:07.993Z,0.00
2019-02-03T01:57:07.966Z,0.00
2019-02-03T01:58:07.946Z,0.00
2019-02-03T01:59:07.929Z,0.00
2019-02-03T02:00:07.895Z,0.00
2019-02-03T02:01:07.875Z,0.00
2019-02-03T02:02:07.869Z,0.00
2019-02-03T02:03:07.818Z,0.00
2019-02-03T02:04:07.798Z,0.00
2019-02-03T02:05:07.777Z,0.00
2019-02-03T02:06:07.752Z,0.00
2019-02-03T02:07:07.727Z,0.00
2019-02-03T02:08:07.706Z,0.00
2019-02-03T02:09:07.672Z,0.00
2019-02-03T02:10:07.647Z,0.00
2019-02-03T02:11:07.632Z,0.00
2019-02-03T02:12:07.599Z,0.00
2019-02-03T02:13:07.576Z,0.00
2019-02-03T02:14:07.558Z,0.00
2019-02-03T02:15:07.530Z,0.00
2019-02-03T02:16:07.508Z,0.00
2019-02-03T02:17:07.477Z,0.00
2019-02-03T02:18:07.460Z,0.00
2019-02-03T02:19:07.428Z,0.00
2019-02-03T02:20:07.406Z,0.00
2019-02-03T02:21:07.385Z,0.00
2019-02-03T02:22:07.356Z,0.00
2019-02-03T02:23:07.331Z,0.00
2019-02-03T02:24:07.307Z,0.00
2019-02-03T02:25:07.289Z,0.00
2019-02-03T02:26:07.261Z,0.00
2019-02-03T02:27:07.234Z,0.00
2019-02-03T02:28:07.209Z,0.00
2019-02-03T02:29:07.186Z,0.00
2019-02-03T02:30:07.162Z,0.00
2019-02-03T02:31:07.143Z,0.00
2019-02-03T02:32:07.116Z,0.00
2019-02-03T02:33:07.090Z,0.00
2019-02-03T02:34:07.065Z,0.00
2019-02-03T02:35:07.037Z,0.00
2019-02-03T02:36:07.017Z,0.00
2019-02-03T02:37:06.994Z,0.00
2019-02-03T02:38:07.629Z,0.00
2019-02-03T02:39:06.937Z,0.00
2019-02-03T02:40:12.830Z,0.00
2019-02-03T02:41:06.891Z,0.00
2019-02-03T02:42:06.871Z,0.00
2019-02-03T02:43:06.847Z,0.00
2019-02-03T02:44:06.815Z,0.00
2019-02-03T02:45:06.793Z,0.00
2019-02-03T02:46:06.767Z,0.00
2019-02-03T02:47:06.747Z,0.00
2019-02-03T02:48:06.721Z,0.00
2019-02-03T02:49:06.700Z,0.00
2019-02-03T02:50:06.670Z,0.00
2019-02-03T02:51:06.648Z,0.00
2019-02-03T02:52:06.620Z,0.00
2019-02-03T02:53:06.601Z,0.00
2019-02-03T02:54:06.572Z,0.00
2019-02-03T02:55:06.544Z,0.00
2019-02-03T02:56:06.525Z,0.00
2019-02-03T02:57:06.502Z,0.00
2019-02-03T02:58:06.475Z,0.00
2019-02-03T02:59:06.487Z,0.00
2019-02-03T03:00:06.426Z,0.00
2019-02-03T03:01:06.397Z,0.00
2019-02-03T03:02:06.376Z,0.00
2019-02-03T03:03:06.353Z,0.00
2019-02-03T03:04:06.324Z,0.00
2019-02-03T03:05:06.306Z,0.00
2019-02-03T03:06:06.284Z,0.00
2019-02-03T03:07:06.256Z,0.00
2019-02-03T03:08:18.213Z,0.00
2019-02-03T03:09:06.210Z,0.00
2019-02-03T03:10:06.176Z,0.00
2019-02-03T03:11:06.192Z,0.00
2019-02-03T03:12:06.173Z,0.00
2019-02-03T03:13:06.145Z,0.00
2019-02-03T03:14:06.174Z,0.00
2019-02-03T03:15:06.063Z,0.00
2019-02-03T03:16:06.030Z,0.00
2019-02-03T03:17:06.010Z,0.00
2019-02-03T03:18:05.984Z,0.00
2019-02-03T03:19:05.994Z,0.00
2019-02-03T03:20:05.963Z,0.00
2019-02-03T03:21:05.941Z,0.00
2019-02-03T03:22:05.893Z,0.00
2019-02-03T03:23:05.858Z,0.00
2019-02-03T03:24:05.901Z,0.00
2019-02-03T03:25:05.810Z,0.00
2019-02-03T03:26:07.493Z,0.00
2019-02-03T03:27:05.760Z,0.00
2019-02-03T03:28:05.734Z,0.00
2019-02-03T03:29:05.718Z,0.00
2019-02-03T03:30:05.734Z,0.00
2019-02-03T03:31:05.700Z,0.00
2019-02-03T03:32:05.674Z,0.00
2019-02-03T03:33:05.641Z,0.00
2019-02-03T03:34:05.613Z,0.00
2019-02-03T03:35:05.599Z,0.00
2019-02-03T03:36:05.567Z,0.00
2019-02-03T03:37:05.534Z,0.00
2019-02-03T03:38:05.512Z,0.00
2019-02-03T03:39:05.486Z,0.00
2019-02-03T03:40:05.480Z,0.00
2019-02-03T03:41:05.452Z,0.00
2019-02-03T03:42:05.420Z,0.00
2019-02-03T03:43:05.392Z,0.00
2019-02-03T03:44:05.401Z,0.00
2019-02-03T03:45:05.354Z,0.00
2019-02-03T03:46:06.660Z,0.00
2019-02-03T03:47:05.274Z,0.00
2019-02-03T03:48:05.263Z,0.00
2019-02-03T03:49:05.224Z,0.00
2019-02-03T03:50:05.200Z,0.00
2019-02-03T03:51:05.180Z,0.00
2019-02-03T03:52:05.188Z,0.00
2019-02-03T03:53:05.155Z,0.00
2019-02-03T03:54:05.128Z,0.00
2019-02-03T03:55:05.115Z,0.00
2019-02-03T03:56:05.072Z,0.00
2019-02-03T03:57:05.045Z,0.00
2019-02-03T03:58:05.029Z,0.00
2019-02-03T03:59:05.003Z,0.00
2019-02-03T04:00:04.967Z,0.00
2019-02-03T04:01:04.945Z,0.00
2019-02-03T04:02:04.936Z,0.00
2019-02-03T04:03:04.899Z,0.00
2019-02-03T04:04:04.887Z,0.00
2019-02-03T04:05:04.855Z,0.00
2019-02-03T04:06:04.829Z,0.00
2019-02-03T04:07:04.795Z,0.00
2019-02-03T04:08:04.772Z,0.00
2019-02-03T04:09:04.751Z,0.00
2019-02-03T04:10:04.728Z,0.00
2019-02-03T04:11:04.710Z,0.00
2019-02-03T04:12:04.682Z,0.00
2019-02-03T04:13:04.653Z,0.00
2019-02-03T04:14:04.628Z,0.00
2019-02-03T04:15:04.606Z,0.00
2019-02-03T04:16:04.583Z,0.00
2019-02-03T04:17:04.549Z,0.00
2019-02-03T04:18:04.545Z,0.00
2019-02-03T04:19:04.518Z,0.00
2019-02-03T04:20:04.491Z,0.00
2019-02-03T04:21:04.465Z,0.00
2019-02-03T04:22:04.423Z,0.00
2019-02-03T04:23:04.405Z,0.00
2019-02-03T04:24:04.393Z,0.00
2019-02-03T04:25:04.365Z,0.00
2019-02-03T04:26:04.349Z,0.00
2019-02-03T04:27:04.321Z,0.00
2019-02-03T04:28:04.295Z,0.00
2019-02-03T04:29:04.255Z,0.00
2019-02-03T04:30:04.210Z,0.00
2019-02-03T04:31:04.188Z,0.00
2019-02-03T04:32:04.165Z,0.00
2019-02-03T04:33:04.142Z,0.00
2019-02-03T04:34:04.327Z,0.00
2019-02-03T04:35:04.084Z,0.00
2019-02-03T04:36:04.060Z,0.00
2019-02-03T04:37:04.037Z,0.00
2019-02-03T04:38:04.016Z,0.00
2019-02-03T04:39:03.986Z,0.00
2019-02-03T04:40:03.961Z,0.00
2019-02-03T04:41:03.934Z,0.00
2019-02-03T04:42:03.912Z,0.00
2019-02-03T04:43:03.892Z,0.00
2019-02-03T04:44:03.867Z,0.00
2019-02-03T04:45:03.845Z,0.00
2019-02-03T04:46:03.823Z,0.00
2019-02-03T04:47:03.848Z,0.00
2019-02-03T04:48:03.769Z,0.00
2019-02-03T04:49:03.737Z,0.00
2019-02-03T04:50:03.721Z,0.00
2019-02-03T04:51:03.691Z,0.00
2019-02-03T04:52:03.663Z,0.00
2019-02-03T04:53:03.646Z,0.00
2019-02-03T04:54:03.621Z,0.00
2019-02-03T04:55:03.593Z,0.00
2019-02-03T04:56:03.567Z,0.00
2019-02-03T04:57:03.543Z,0.00
2019-02-03T04:58:03.523Z,0.00
2019-02-03T04:59:03.491Z,0.00
2019-02-03T05:00:03.470Z,0.00
2019-02-03T05:01:03.446Z,0.00
2019-02-03T05:02:03.420Z,0.00
2019-02-03T05:03:03.394Z,0.00
2019-02-03T05:04:03.368Z,0.00
2019-02-03T05:05:03.341Z,0.00
2019-02-03T05:06:03.328Z,0.00
2019-02-03T05:07:03.291Z,0.00
2019-02-03T05:08:03.280Z,0.00
2019-02-03T05:09:10.798Z,0.00
2019-02-03T05:10:03.220Z,0.00
2019-02-03T05:11:03.203Z,0.00
2019-02-03T05:12:03.171Z,0.00
2019-02-03T05:13:03.141Z,0.00
2019-02-03T05:14:03.123Z,0.00
2019-02-03T05:15:03.094Z,0.00
2019-02-03T05:16:03.075Z,0.00
2019-02-03T05:17:03.042Z,0.00
2019-02-03T05:18:03.017Z,0.00
2019-02-03T05:19:02.998Z,0.00
2019-02-03T05:20:02.969Z,0.00
2019-02-03T05:21:02.953Z,0.00
2019-02-03T05:22:02.921Z,0.00
2019-02-03T05:23:02.894Z,0.00
2019-02-03T05:24:02.870Z,0.00
2019-02-03T05:25:02.880Z,0.00
2019-02-03T05:26:02.824Z,0.00
2019-02-03T05:27:02.797Z,0.00
2019-02-03T05:28:02.771Z,0.00
2019-02-03T05:29:02.747Z,0.00
2019-02-03T05:30:02.739Z,0.00
2019-02-03T05:31:02.704Z,0.00
2019-02-03T05:32:02.675Z,0.00
2019-02-03T05:33:02.650Z,0.00
2019-02-03T05:34:02.623Z,0.00
2019-02-03T05:35:02.599Z,0.00
2019-02-03T05:36:02.569Z,0.00
2019-02-03T05:37:02.554Z,0.00
2019-02-03T05:38:02.548Z,0.00
2019-02-03T05:39:02.500Z,0.00
2019-02-03T05:40:02.472Z,0.00
2019-02-03T05:41:02.447Z,0.00
2019-02-03T05:42:02.425Z,0.00
2019-02-03T05:43:02.395Z,0.00
2019-02-03T05:44:02.372Z,0.00
2019-02-03T05:45:02.356Z,0.00
2019-02-03T05:46:02.437Z,0.00
2019-02-03T05:47:02.298Z,0.00
2019-02-03T05:48:02.276Z,0.00
2019-02-03T05:49:02.247Z,0.00
2019-02-03T05:50:02.232Z,0.00
2019-02-03T05:51:02.206Z,0.00
2019-02-03T05:52:02.174Z,0.00
2019-02-03T05:53:02.149Z,0.00
2019-02-03T05:54:02.127Z,0.00
2019-02-03T05:55:02.107Z,0.00
2019-02-03T05:56:02.078Z,0.00
2019-02-03T05:57:02.052Z,0.00
2019-02-03T05:58:02.033Z,0.00
2019-02-03T05:59:02.001Z,0.00
2019-02-03T06:00:01.995Z,0.00
2019-02-03T06:01:01.958Z,0.00
2019-02-03T06:02:01.928Z,0.00
2019-02-03T06:03:01.957Z,0.00
2019-02-03T06:04:01.883Z,0.00
2019-02-03T06:05:01.865Z,0.00
2019-02-03T06:06:01.829Z,0.00
2019-02-03T06:07:01.805Z,0.00
2019-02-03T06:08:01.790Z,0.00
2019-02-03T06:09:01.752Z,0.00
2019-02-03T06:10:01.728Z,0.00
2019-02-03T06:11:01.704Z,0.00
2019-02-03T06:12:01.679Z,0.00
2019-02-03T06:13:01.659Z,0.00
2019-02-03T06:14:01.628Z,0.00
2019-02-03T06:15:01.614Z,0.00
2019-02-03T06:16:01.577Z,0.00
2019-02-03T06:17:01.555Z,0.00
2019-02-03T06:18:01.529Z,0.00
2019-02-03T06:19:01.503Z,0.00
2019-02-03T06:20:01.478Z,0.00
2019-02-03T06:21:01.454Z,0.00
2019-02-03T06:22:01.430Z,0.00
2019-02-03T06:23:01.403Z,0.00
2019-02-03T06:24:01.378Z,0.00
2019-02-03T06:25:01.363Z,0.00
2019-02-03T06:26:01.331Z,0.00
2019-02-03T06:27:01.311Z,0.00
2019-02-03T06:28:01.282Z,0.00
2019-02-03T06:29:01.256Z,4.00
2019-02-03T06:30:01.239Z,4.00
2019-02-03T06:31:01.212Z,4.00
2019-02-03T06:32:01.186Z,0.00
2019-02-03T06:33:01.155Z,0.00
2019-02-03T06:34:01.134Z,4.00
2019-02-03T06:35:01.115Z,4.00
2019-02-03T06:36:01.082Z,4.00
2019-02-03T06:37:01.063Z,8.00
2019-02-03T06:38:01.038Z,12.00
2019-02-03T06:39:01.011Z,12.00
2019-02-03T06:40:00.979Z,16.00
2019-02-03T06:41:00.957Z,20.00
2019-02-03T06:42:00.932Z,20.00
2019-02-03T06:43:00.910Z,20.00
2019-02-03T06:44:00.881Z,20.00
2019-02-03T06:45:00.859Z,20.00
2019-02-03T06:46:00.839Z,24.00
2019-02-03T06:47:00.807Z,32.00
2019-02-03T06:48:00.782Z,36.00
2019-02-03T06:49:00.764Z,40.00
2019-02-03T06:50:00.739Z,40.00
2019-02-03T06:51:00.708Z,44.00
2019-02-03T06:52:00.684Z,60.00
2019-02-03T06:53:00.659Z,60.00
2019-02-03T06:54:00.640Z,80.00
2019-02-03T06:55:00.608Z,88.00
2019-02-03T06:56:00.585Z,108.00
2019-02-03T06:57:00.566Z,128.00
2019-02-03T06:58:00.535Z,124.00
2019-02-03T06:59:00.516Z,132.00
2019-02-03T07:00:00.493Z,160.00
2019-02-03T07:01:00.464Z,168.00
2019-02-03T07:02:00.437Z,180.00
2019-02-03T07:03:00.410Z,188.00
2019-02-03T07:04:00.410Z,212.00
2019-02-03T07:05:00.365Z,224.00
2019-02-03T07:06:00.336Z,232.00
2019-02-03T07:07:00.316Z,248.00
2019-02-03T07:08:00.285Z,280.00
2019-02-03T07:09:00.266Z,308.00
2019-02-03T07:10:00.967Z,308.00
2019-02-03T07:11:00.211Z,316.00
2019-02-03T07:12:00.183Z,332.00
2019-02-03T07:13:00.168Z,348.00
2019-02-03T07:14:00.136Z,364.00
2019-02-03T07:15:00.311Z,384.00
2019-02-03T07:16:00.101Z,408.00
2019-02-03T07:17:00.060Z,432.00
2019-02-03T07:18:00.037Z,452.00
2019-02-03T07:19:00.011Z,468.00
2019-02-03T07:19:59.986Z,484.00
2019-02-03T07:20:59.966Z,500.00
2019-02-03T07:21:59.937Z,508.00
2019-02-03T07:22:59.912Z,524.00
2019-02-03T07:23:59.890Z,544.00
2019-02-03T07:24:59.861Z,576.00
2019-02-03T07:25:59.845Z,628.00
2019-02-03T07:26:59.813Z,672.00
2019-02-03T07:27:59.793Z,712.00
2019-02-03T07:28:59.768Z,744.00
2019-02-03T07:29:59.745Z,792.00
2019-02-03T07:30:59.729Z,828.00
2019-02-03T07:31:59.690Z,872.00
2019-02-03T07:32:59.668Z,916.00
2019-02-03T07:33:59.644Z,948.00
2019-02-03T07:34:59.615Z,980.00
2019-02-03T07:35:59.592Z,996.00
2019-02-03T07:36:59.635Z,1024.00
2019-02-03T07:37:59.543Z,1064.00
2019-02-03T07:38:59.515Z,1100.00
2019-02-03T07:39:59.489Z,1140.00
2019-02-03T07:40:59.463Z,1156.00
2019-02-03T07:41:59.440Z,1184.00
2019-02-03T07:42:59.418Z,1220.00
2019-02-03T07:43:59.399Z,1304.00
2019-02-03T07:44:59.368Z,1420.00
2019-02-03T07:45:59.341Z,1544.00
2019-02-03T07:46:59.319Z,1636.00
2019-02-03T07:47:59.295Z,1740.00
2019-02-03T07:48:59.266Z,1844.00
2019-02-03T07:49:59.250Z,1956.00
2019-02-03T07:50:59.221Z,2060.00
2019-02-03T07:51:59.207Z,2144.00
2019-02-03T07:52:59.168Z,2268.00
2019-02-03T07:54:08.029Z,2404.00
2019-02-03T07:54:59.123Z,2532.00
2019-02-03T07:55:59.094Z,2632.00
2019-02-03T07:56:59.075Z,2696.00
2019-02-03T07:57:59.049Z,2752.00
2019-02-03T07:58:59.017Z,2804.00
2019-02-03T07:59:58.999Z,2856.00
2019-02-03T08:00:58.970Z,2912.00
2019-02-03T08:01:58.948Z,2948.00
2019-02-03T08:02:58.918Z,2948.00
2019-02-03T08:03:58.896Z,2860.00
2019-02-03T08:04:58.877Z,2672.00
2019-02-03T08:05:58.848Z,2408.00
2019-02-03T08:06:58.825Z,2144.00
2019-02-03T08:07:58.803Z,1864.00
2019-02-03T08:08:58.774Z,1592.00
2019-02-03T08:09:58.746Z,1428.00
2019-02-03T08:10:58.742Z,1356.00
2019-02-03T08:11:58.695Z,1300.00
2019-02-03T08:12:58.673Z,1240.00
2019-02-03T08:13:58.648Z,1264.00
2019-02-03T08:14:58.629Z,1304.00
2019-02-03T08:15:58.602Z,1352.00
2019-02-03T08:16:58.574Z,1420.00
2019-02-03T08:17:58.555Z,1388.00
2019-02-03T08:18:58.529Z,1492.00
2019-02-03T08:19:58.498Z,1704.00
2019-02-03T08:20:58.482Z,1816.00
2019-02-03T08:21:58.459Z,1928.00
2019-02-03T08:22:58.584Z,1968.00
2019-02-03T08:23:58.402Z,1952.00
2019-02-03T08:24:58.379Z,1900.00
2019-02-03T08:25:58.370Z,1796.00
2019-02-03T08:26:58.352Z,1780.00
2019-02-03T08:27:58.307Z,1936.00
2019-02-03T08:28:58.276Z,2080.00
2019-02-03T08:29:58.253Z,2244.00
2019-02-03T08:30:58.234Z,2216.00
2019-02-03T08:31:58.208Z,2224.00
2019-02-03T08:32:58.179Z,2352.00
2019-02-03T08:33:58.152Z,2492.00
2019-02-03T08:34:58.127Z,2636.00
2019-02-03T08:35:58.104Z,2752.00
2019-02-03T08:36:58.085Z,2820.00
2019-02-03T08:37:58.056Z,2980.00
2019-02-03T08:38:58.030Z,2956.00
2019-02-03T08:39:58.005Z,2988.00
2019-02-03T08:40:57.982Z,3072.00
2019-02-03T08:41:57.958Z,3096.00
2019-02-03T08:42:57.931Z,3000.00
2019-02-03T08:43:57.908Z,3076.00
2019-02-03T08:44:57.893Z,3236.00
2019-02-03T08:45:57.863Z,3248.00
2019-02-03T08:46:57.831Z,3180.00
2019-02-03T08:47:57.812Z,3292.00
2019-02-03T08:48:57.792Z,3316.00
2019-02-03T08:49:57.766Z,3592.00
2019-02-03T08:50:57.734Z,3528.00
2019-02-03T08:51:57.715Z,3400.00
2019-02-03T08:52:57.686Z,3232.00
2019-02-03T08:53:57.663Z,3136.00
2019-02-03T08:54:58.679Z,3236.00
2019-02-03T08:55:57.619Z,3212.00
2019-02-03T08:56:57.590Z,3324.00
2019-02-03T08:57:58.028Z,3564.00
2019-02-03T08:58:57.542Z,3652.00
2019-02-03T08:59:57.522Z,3740.00
2019-02-03T09:00:57.506Z,3792.00
2019-02-03T09:01:57.468Z,3824.00
2019-02-03T09:02:57.444Z,4068.00
2019-02-03T09:03:57.423Z,4188.00
2019-02-03T09:04:57.394Z,4244.00
2019-02-03T09:05:57.368Z,4300.00
2019-02-03T09:06:57.925Z,4240.00
2019-02-03T09:07:57.320Z,4120.00
2019-02-03T09:08:57.302Z,4316.00
2019-02-03T09:09:57.272Z,4236.00
2019-02-03T09:10:57.253Z,4076.00
2019-02-03T09:11:57.224Z,4144.00
2019-02-03T09:12:57.206Z,4024.00
2019-02-03T09:13:57.174Z,4128.00
2019-02-03T09:14:57.157Z,4280.00
2019-02-03T09:15:57.125Z,4544.00
2019-02-03T09:16:57.102Z,4220.00
2019-02-03T09:17:57.084Z,4128.00
2019-02-03T09:18:57.053Z,4192.00
2019-02-03T09:19:58.044Z,4316.00
2019-02-03T09:20:57.006Z,4508.00
2019-02-03T09:21:56.984Z,4780.00
2019-02-03T09:22:56.960Z,5296.00
2019-02-03T09:23:56.937Z,5496.00
2019-02-03T09:24:56.917Z,5908.00
2019-02-03T09:25:56.887Z,6248.00
2019-02-03T09:26:56.857Z,6472.00
2019-02-03T09:27:56.955Z,6600.00
2019-02-03T09:28:56.946Z,6628.00
2019-02-03T09:29:56.788Z,6792.00
2019-02-03T09:30:56.768Z,7224.00
2019-02-03T09:31:56.736Z,7520.00
2019-02-03T09:32:56.723Z,7776.00
2019-02-03T09:33:56.694Z,8032.00
2019-02-03T09:34:56.672Z,8152.00
2019-02-03T09:35:56.640Z,8104.00
2019-02-03T09:36:56.624Z,7992.00
2019-02-03T09:37:56.598Z,8068.00
2019-02-03T09:38:56.576Z,8056.00
2019-02-03T09:39:56.544Z,7900.00
2019-02-03T09:41:00.267Z,7792.00
2019-02-03T09:41:56.499Z,7696.00
2019-02-03T09:42:56.480Z,7604.00
2019-02-03T09:43:56.455Z,7516.00
2019-02-03T09:44:56.435Z,7464.00
2019-02-03T09:45:56.407Z,7588.00
2019-02-03T09:46:56.382Z,7612.00
2019-02-03T09:47:56.356Z,7524.00
2019-02-03T09:48:56.337Z,7160.00
2019-02-03T09:49:56.314Z,6712.00
2019-02-03T09:50:56.282Z,6420.00
2019-02-03T09:51:56.260Z,5848.00
2019-02-03T09:52:56.241Z,5132.00
2019-02-03T09:53:56.215Z,4668.00
2019-02-03T09:54:56.193Z,4440.00
2019-02-03T09:55:56.165Z,4144.00
2019-02-03T09:56:56.142Z,3980.00
2019-02-03T09:57:56.128Z,3796.00
2019-02-03T09:58:56.098Z,3244.00
2019-02-03T09:59:57.902Z,3284.00
2019-02-03T10:00:56.047Z,3236.00
2019-02-03T10:01:56.107Z,2720.00
2019-02-03T10:02:56.005Z,2588.00
2019-02-03T10:03:55.978Z,2884.00
2019-02-03T10:04:55.952Z,2748.00
2019-02-03T10:05:55.933Z,2684.00
2019-02-03T10:06:55.917Z,2268.00
2019-02-03T10:07:55.886Z,2020.00
2019-02-03T10:08:55.863Z,2020.00
2019-02-03T10:09:55.832Z,1896.00
2019-02-03T10:10:55.808Z,1868.00
2019-02-03T10:11:55.789Z,2052.00
2019-02-03T10:12:55.768Z,2200.00
2019-02-03T10:13:55.740Z,1988.00
2019-02-03T10:14:55.716Z,1820.00
2019-02-03T10:15:55.691Z,1860.00
2019-02-03T10:16:55.669Z,1932.00
2019-02-03T10:17:55.647Z,1800.00
2019-02-03T10:18:55.621Z,1564.00
2019-02-03T10:19:55.601Z,1456.00
2019-02-03T10:20:55.572Z,1448.00
2019-02-03T10:21:55.543Z,1552.00
2019-02-03T10:22:55.522Z,1768.00
2019-02-03T10:23:55.495Z,1968.00
2019-02-03T10:24:55.472Z,1952.00
2019-02-03T10:25:55.596Z,2096.00
2019-02-03T10:26:55.426Z,2196.00
2019-02-03T10:27:55.402Z,2112.00
2019-02-03T10:28:55.380Z,2268.00
2019-02-03T10:29:55.350Z,2780.00
2019-02-03T10:30:55.331Z,2996.00
2019-02-03T10:31:55.301Z,2736.00
2019-02-03T10:32:55.283Z,2408.00
2019-02-03T10:33:55.262Z,2316.00
2019-02-03T10:34:55.237Z,2672.00
2019-02-03T10:35:55.207Z,3008.00
2019-02-03T10:36:55.187Z,3000.00
2019-02-03T10:37:55.158Z,3120.00
2019-02-03T10:38:55.138Z,3176.00
2019-02-03T10:39:55.113Z,3256.00
2019-02-03T10:40:55.097Z,3084.00
2019-02-03T10:41:55.059Z,2816.00
2019-02-03T10:42:55.036Z,2244.00
2019-02-03T10:43:56.448Z,1768.00
2019-02-03T10:44:54.988Z,1688.00
2019-02-03T10:45:54.963Z,1956.00
2019-02-03T10:46:54.937Z,2232.00
2019-02-03T10:47:54.924Z,2692.00
2019-02-03T10:48:54.895Z,3144.00
2019-02-03T10:49:54.866Z,3136.00
2019-02-03T10:50:54.847Z,3160.00
2019-02-03T10:51:54.819Z,3736.00
2019-02-03T10:52:54.794Z,4104.00
2019-02-03T10:53:54.774Z,4004.00
2019-02-03T10:54:56.045Z,4120.00
2019-02-03T10:55:54.718Z,4164.00
2019-02-03T10:56:54.696Z,3844.00
2019-02-03T10:57:54.677Z,3384.00
2019-02-03T10:58:54.647Z,2748.00
2019-02-03T10:59:54.631Z,2480.00
2019-02-03T11:00:55.184Z,2472.00
2019-02-03T11:01:54.674Z,2464.00
2019-02-03T11:02:54.557Z,2176.00
2019-02-03T11:03:54.528Z,2064.00
2019-02-03T11:04:54.508Z,2296.00
2019-02-03T11:05:54.486Z,2468.00
2019-02-03T11:06:54.454Z,3048.00
2019-02-03T11:07:54.437Z,3504.00
2019-02-03T11:08:54.413Z,4320.00
2019-02-03T11:09:54.388Z,5048.00
2019-02-03T11:10:54.365Z,5404.00
2019-02-03T11:11:54.330Z,5364.00
2019-02-03T11:12:54.317Z,5080.00
2019-02-03T11:13:54.288Z,4496.00
2019-02-03T11:14:54.266Z,3664.00
2019-02-03T11:15:54.236Z,3096.00
2019-02-03T11:16:54.216Z,3240.00
2019-02-03T11:17:54.188Z,3452.00
2019-02-03T11:18:54.170Z,3668.00
2019-02-03T11:19:54.147Z,4160.00
2019-02-03T11:20:54.122Z,4468.00
2019-02-03T11:21:54.093Z,4388.00
2019-02-03T11:22:54.075Z,5224.00
2019-02-03T11:23:54.045Z,6412.00
2019-02-03T11:24:54.026Z,6152.00
2019-02-03T11:25:54.002Z,5376.00
2019-02-03T11:26:53.981Z,4460.00
2019-02-03T11:27:53.956Z,5008.00
2019-02-03T11:28:53.925Z,5372.00
2019-02-03T11:29:53.908Z,5804.00
2019-02-03T11:30:53.876Z,6548.00
2019-02-03T11:31:54.415Z,6916.00
2019-02-03T11:33:04.843Z,7424.00
2019-02-03T11:33:53.812Z,8604.00
2019-02-03T11:34:53.790Z,9628.00
2019-02-03T11:35:53.759Z,8960.00
2019-02-03T11:36:53.739Z,8652.00
2019-02-03T11:37:53.714Z,9028.00
2019-02-03T11:38:53.694Z,8152.00
2019-02-03T11:39:53.672Z,7208.00
2019-02-03T11:40:53.736Z,7240.00
2019-02-03T11:41:53.625Z,6596.00
2019-02-03T11:42:53.595Z,6908.00
2019-02-03T11:43:53.570Z,6820.00
2019-02-03T11:44:53.549Z,6816.00
2019-02-03T11:45:53.530Z,5964.00
2019-02-03T11:46:53.499Z,6460.00
2019-02-03T11:47:53.482Z,8012.00
2019-02-03T11:48:53.456Z,8752.00
2019-02-03T11:49:53.428Z,8840.00
2019-02-03T11:50:53.430Z,8344.00
2019-02-03T11:51:53.385Z,7760.00
2019-02-03T11:52:53.360Z,7172.00
2019-02-03T11:53:53.337Z,6404.00
2019-02-03T11:54:53.318Z,6536.00
2019-02-03T11:55:53.912Z,7520.00
2019-02-03T11:56:53.274Z,7888.00
2019-02-03T11:57:53.247Z,7808.00
2019-02-03T11:58:53.224Z,8112.00
2019-02-03T11:59:53.199Z,8928.00
2019-02-03T12:00:53.169Z,9688.00
2019-02-03T12:01:53.153Z,9232.00
2019-02-03T12:02:53.123Z,9392.00
2019-02-03T12:03:53.105Z,9552.00
2019-02-03T12:04:53.086Z,9484.00
2019-02-03T12:05:53.053Z,8980.00
2019-02-03T12:06:53.031Z,9140.00
2019-02-03T12:07:53.013Z,9348.00
2019-02-03T12:08:52.987Z,9288.00
2019-02-03T12:09:52.968Z,8924.00
2019-02-03T12:10:52.943Z,8784.00
2019-02-03T12:12:00.742Z,8312.00
2019-02-03T12:12:52.890Z,8176.00
2019-02-03T12:13:52.883Z,8372.00
2019-02-03T12:14:52.867Z,8504.00
2019-02-03T12:15:52.822Z,9020.00
2019-02-03T12:16:52.810Z,8644.00
2019-02-03T12:17:52.778Z,8516.00
2019-02-03T12:18:52.752Z,8884.00
2019-02-03T12:19:52.729Z,8980.00
2019-02-03T12:20:52.710Z,9324.00
2019-02-03T12:21:52.691Z,9796.00
2019-02-03T12:22:53.169Z,10692.00
2019-02-03T12:23:52.662Z,10892.00
2019-02-03T12:24:52.652Z,9988.00
2019-02-03T12:25:52.620Z,8856.00
2019-02-03T12:26:52.594Z,7020.00
2019-02-03T12:27:52.610Z,7512.00
2019-02-03T12:28:52.556Z,7968.00
2019-02-03T12:29:52.524Z,8496.00
2019-02-03T12:30:52.495Z,7484.00
2019-02-03T12:31:52.476Z,6856.00
2019-02-03T12:32:52.471Z,7240.00
2019-02-03T12:33:52.435Z,8896.00
2019-02-03T12:34:52.412Z,7696.00
2019-02-03T12:35:52.399Z,6092.00
2019-02-03T12:36:52.370Z,5492.00
2019-02-03T12:37:52.350Z,5592.00
2019-02-03T12:38:52.322Z,6012.00
2019-02-03T12:39:52.296Z,6712.00
2019-02-03T12:40:52.284Z,8168.00
2019-02-03T12:41:52.258Z,8940.00
2019-02-03T12:42:52.235Z,9456.00
2019-02-03T12:43:52.203Z,9528.00